KIAG/IAG METAR and TAF weather

Enter ICAO airport designator
Station Type Date Time Source
KIAG METAR 2020/07/06 07:53 UTC NOAA

KIAG 060753Z AUTO 00000KT 10SM CLR 18/14 A2999 RMK AO2 SLP148 T01830139


Station Type Date Time Source
KIAG Decoded METAR 2020/07/06 07:53 UTC NOAA

NIAGARA FALLS INTERNATIONAL AIRPORT, NY, United States (KIAG) 43-07N 078-56W 182M
Jul 06, 2020 - 03:53 AM EDT / 2020.07.06 0753 UTC
Wind: Calm:0
Visibility: 10 mile(s):0
Sky conditions: clear
Temperature: 64.9 F (18.3 C)
Dew Point: 57.0 F (13.9 C)
Relative Humidity: 75%
Pressure (altimeter): 29.99 in. Hg (1015 hPa)
ob: KIAG 060753Z AUTO 00000KT 10SM CLR 18/14 A2999 RMK AO2 SLP148 T01830139
cycle: 8

Station Type Date Time Source
KIAG TAF 2020/07/06 06:30 UTC NOAA

TAF KIAG 060527Z 0606/0706 VRB03KT P6SM SCT250
FM061500 07005KT P6SM SCT150
FM061800 06009KT P6SM SCT200
FM070200 12004KT P6SM SCT250

Example: see airport list